This is the latest recevied weather packets stored in our database for station/object BMCB-37. If no packets are shown the sender has not sent any weather packets the latest 10 day(s).
| Time | Temp. | Humidity | Pressure | Rain* | Wind** | Luminosity | Snow |
|---|---|---|---|---|---|---|---|
| 1778061040 | 10.56° C | 10% | 1011.5 hPa | 0 mm | - | - | - |
| 1778059838 | 10° C | 10% | 1011.2 hPa | 0 mm | - | - | - |
| 1778053237 | 8.89° C | 10% | 1010.7 hPa | 0.76 mm | - | - | - |
| 1778029223 | 9.44° C | 10% | 1011.1 hPa | 2.03 mm | - | - | - |
| 1778026236 | 9.44° C | 10% | 1011.1 hPa | 2.29 mm | - | - | - |
| 1778020842 | 10° C | 10% | 1011.5 hPa | 2.29 mm | - | - | - |
| 1778011236 | 10° C | 10% | 1011.7 hPa | 2.54 mm | - | - | - |
| 1778010040 | 10° C | 10% | 1011.6 hPa | 2.29 mm | - | - | - |
| 1778007041 | 10.56° C | 10% | 1011.5 hPa | 1.02 mm | - | - | - |
| 1778006441 | 10.56° C | 10% | 1011.5 hPa | 0.76 mm | - | - | - |
| 1778004035 | 10.56° C | 99% | 1011.5 hPa | 0.25 mm | - | 6 W/m² | - |
| 1778001633 | 11.11° C | 99% | 1011.5 hPa | 0 mm | - | 12 W/m² | - |
| 1778001041 | 10.56° C | 99% | 1011.5 hPa | 0 mm | - | 14 W/m² | - |
| 1777995636 | 11.11° C | 98% | 1011.7 hPa | 0 mm | - | 58 W/m² | - |
| 1777993839 | 11.11° C | 98% | 1011.8 hPa | 0 mm | - | 64 W/m² | - |
| 1777992042 | 11.67° C | 98% | 1011.8 hPa | 0 mm | - | 100 W/m² | - |
| 1777977037 | 11.11° C | 10% | 1012.9 hPa | 0.25 mm | - | - | - |
| 1777976436 | 11.11° C | 10% | 1012.9 hPa | 0.25 mm | - | - | - |
| 1777966841 | 11.67° C | 10% | 1013 hPa | 0 mm | - | - | - |
| 1777965642 | 11.67° C | 10% | 1013 hPa | 0 mm | - | - | - |
| 1777963835 | 11.67° C | 10% | 1013.1 hPa | 0 mm | - | - | - |
| 1777960226 | 12.22° C | 10% | 1013.1 hPa | 1.78 mm | - | - | - |
| 1777957226 | 12.22° C | 10% | 1013 hPa | 1.27 mm | - | - | - |
| 1777956640 | 12.22° C | 10% | 1012.9 hPa | 1.02 mm | - | - | - |
| 1777953040 | 12.78° C | 10% | 1013 hPa | 3.3 mm | - | - | - |
* Rain latest hour (hover to see other rain measurements)
** Current wind speed in m/s (hover to see current wind gust speed)